createdAt,value
2018-12-21T00:01:30.012Z,100719.84
2018-12-21T00:03:58.986Z,100711.98
2018-12-21T00:06:28.103Z,100709.34
2018-12-21T00:08:57.134Z,100710.68
2018-12-21T00:11:26.269Z,100713.30
2018-12-21T00:13:55.441Z,100710.66
2018-12-21T00:16:24.460Z,100709.78
2018-12-21T00:18:55.003Z,100703.23
2018-12-21T00:21:24.062Z,100700.60
2018-12-21T00:23:53.151Z,100702.81
2018-12-21T00:26:22.221Z,100701.92
2018-12-21T00:28:51.285Z,100704.97
2018-12-21T00:31:25.679Z,100696.23
2018-12-21T00:34:00.024Z,100689.68
2018-12-21T00:36:34.483Z,100701.47
2018-12-21T00:39:09.794Z,100696.22
2018-12-21T00:41:38.091Z,100690.56
2018-12-21T00:44:26.377Z,100691.87
2018-12-21T00:46:58.475Z,100690.09
2018-12-21T00:49:29.095Z,100689.66
2018-12-21T00:51:58.370Z,100688.78
2018-12-21T00:54:27.358Z,100688.78
2018-12-21T00:56:56.339Z,100689.66
2018-12-21T00:59:25.531Z,100684.85
2018-12-21T01:01:55.912Z,100682.23
2018-12-21T01:04:25.121Z,100681.35
2018-12-21T01:06:54.175Z,100679.16
2018-12-21T01:09:23.393Z,100681.36
2018-12-21T01:11:52.468Z,100686.58
2018-12-21T01:14:21.465Z,100675.68
2018-12-21T01:16:50.529Z,100681.36
2018-12-21T01:19:19.637Z,100677.84
2018-12-21T01:21:48.642Z,100681.36
2018-12-21T01:24:17.839Z,100673.92
2018-12-21T01:26:46.919Z,100683.11
2018-12-21T01:29:16.213Z,100679.57
2018-12-21T01:31:45.343Z,100676.10
2018-12-21T01:34:14.358Z,100680.87
2018-12-21T01:36:43.571Z,100682.66
2018-12-21T01:39:13.177Z,100678.30
2018-12-21T01:41:42.287Z,100669.99
2018-12-21T01:44:12.426Z,100675.63
2018-12-21T01:46:41.708Z,100676.11
2018-12-21T01:49:10.729Z,100669.98
2018-12-21T01:51:46.918Z,100676.98
2018-12-21T01:54:11.784Z,100680.92
2018-12-21T01:56:40.887Z,100680.49
2018-12-21T01:59:09.941Z,100674.37
2018-12-21T02:01:40.121Z,100675.68
2018-12-21T02:04:09.342Z,100669.12
2018-12-21T02:06:38.359Z,100674.37
2018-12-21T02:09:07.967Z,100666.05
2018-12-21T02:11:37.270Z,100663.44
2018-12-21T02:14:06.334Z,100663.87
2018-12-21T02:16:35.841Z,100661.20
2018-12-21T02:19:05.023Z,100659.92
2018-12-21T02:21:34.168Z,100666.45
2018-12-21T02:24:03.262Z,100662.11
2018-12-21T02:26:32.323Z,100654.23
2018-12-21T02:29:01.323Z,100649.87
2018-12-21T02:31:32.019Z,100647.67
2018-12-21T02:34:01.101Z,100648.14
2018-12-21T02:36:30.269Z,100639.81
2018-12-21T02:38:59.296Z,100635.45
2018-12-21T02:41:28.411Z,100631.08
2018-12-21T02:43:57.595Z,100631.53
2018-12-21T02:46:26.564Z,100629.34
2018-12-21T02:48:55.680Z,100629.78
2018-12-21T02:51:24.819Z,100631.97
2018-12-21T02:53:53.798Z,100625.41
2018-12-21T02:56:22.881Z,100625.41
2018-12-21T02:58:51.895Z,100626.28
2018-12-21T03:01:21.010Z,100617.09
2018-12-21T03:03:50.196Z,100614.92
2018-12-21T03:06:19.334Z,100609.23
2018-12-21T03:08:48.438Z,100607.50
2018-12-21T03:11:17.478Z,100601.81
2018-12-21T03:13:46.570Z,100602.25
2018-12-21T03:16:15.671Z,100600.95
2018-12-21T03:18:44.825Z,100599.63
2018-12-21T03:21:14.142Z,100599.19
2018-12-21T03:23:43.243Z,100606.20
2018-12-21T03:26:13.382Z,100599.22
2018-12-21T03:28:42.497Z,100596.59
2018-12-21T03:31:11.518Z,100590.88
2018-12-21T03:33:40.481Z,100586.55
2018-12-21T03:36:09.573Z,100584.80
2018-12-21T03:38:38.706Z,100580.86
2018-12-21T03:41:07.852Z,100583.02
2018-12-21T03:43:36.915Z,100569.06
2018-12-21T03:46:06.180Z,100573.43
2018-12-21T03:48:37.245Z,100569.93
2018-12-21T03:51:06.302Z,100574.73
2018-12-21T03:53:35.369Z,100555.53
2018-12-21T03:56:04.528Z,100555.52
2018-12-21T03:58:33.701Z,100554.23
2018-12-21T04:01:02.671Z,100547.70
2018-12-21T04:03:34.546Z,100543.77
2018-12-21T04:06:03.710Z,100537.20
2018-12-21T04:08:33.754Z,100537.20
2018-12-21T04:11:03.122Z,100534.59
2018-12-21T04:13:32.292Z,100529.80
2018-12-21T04:16:01.283Z,100525.48
2018-12-21T04:18:30.343Z,100532.88
2018-12-21T04:20:59.316Z,100528.13
2018-12-21T04:23:28.375Z,100525.95
2018-12-21T04:25:57.372Z,100527.27
2018-12-21T04:28:26.472Z,100530.76
2018-12-21T04:30:55.556Z,100520.34
2018-12-21T04:33:24.552Z,100518.16
2018-12-21T04:35:53.586Z,100513.80
2018-12-21T04:38:22.642Z,100511.20
2018-12-21T04:40:51.637Z,100506.41
2018-12-21T04:43:20.666Z,100508.62
2018-12-21T04:45:49.755Z,100505.59
2018-12-21T04:48:18.805Z,100498.64
2018-12-21T04:50:47.804Z,100501.27
2018-12-21T04:53:16.854Z,100501.72
2018-12-21T04:55:46.023Z,100503.91
2018-12-21T04:58:15.235Z,100497.77
2018-12-21T05:00:44.281Z,100495.57
2018-12-21T05:03:14.698Z,100494.67
2018-12-21T05:05:43.927Z,100494.65
2018-12-21T05:08:13.427Z,100485.07
2018-12-21T05:10:42.509Z,100482.89
2018-12-21T05:13:11.472Z,100481.56
2018-12-21T05:15:40.489Z,100481.12
2018-12-21T05:18:09.479Z,100476.30
2018-12-21T05:20:38.548Z,100471.06
2018-12-21T05:23:07.545Z,100473.23
2018-12-21T05:25:36.585Z,100471.50
2018-12-21T05:28:05.578Z,100467.11
2018-12-21T05:30:34.658Z,100461.00
2018-12-21T05:33:03.820Z,100455.30
2018-12-21T05:35:32.827Z,100446.99
2018-12-21T05:38:01.905Z,100444.85
2018-12-21T05:40:30.973Z,100444.86
2018-12-21T05:42:59.952Z,100443.09
2018-12-21T05:45:28.934Z,100434.79
2018-12-21T05:47:58.014Z,100434.35
2018-12-21T05:50:27.196Z,100432.17
2018-12-21T05:53:00.714Z,100426.91
2018-12-21T05:55:27.347Z,100414.70
2018-12-21T05:57:56.320Z,100410.78
2018-12-21T06:00:25.467Z,100408.56
2018-12-21T06:02:54.523Z,100402.45
2018-12-21T06:05:23.498Z,100390.66
2018-12-21T06:07:52.504Z,100385.86
2018-12-21T06:10:21.670Z,100388.88
2018-12-21T06:12:50.680Z,100378.84
2018-12-21T06:15:19.691Z,100374.47
2018-12-21T06:17:48.670Z,100380.59
2018-12-21T06:20:17.877Z,100379.72
2018-12-21T06:22:46.921Z,100371.42
2018-12-21T06:25:15.994Z,100371.83
2018-12-21T06:27:45.085Z,100359.59
2018-12-21T06:30:14.113Z,100363.53
2018-12-21T06:32:43.092Z,100366.13
2018-12-21T06:35:12.181Z,100356.52
2018-12-21T06:37:41.448Z,100356.95
2018-12-21T06:40:10.445Z,100354.30
2018-12-21T06:42:39.453Z,100344.69
2018-12-21T06:45:08.564Z,100347.31
2018-12-21T06:47:37.622Z,100344.25
2018-12-21T06:50:07.337Z,100342.07
2018-12-21T06:52:36.306Z,100342.51
2018-12-21T06:55:05.884Z,100339.89
2018-12-21T06:57:34.969Z,100338.14
2018-12-21T07:00:04.324Z,100334.65
2018-12-21T07:02:33.283Z,100332.90
2018-12-21T07:05:02.463Z,100322.85
2018-12-21T07:07:31.422Z,100320.23
2018-12-21T07:10:00.397Z,100320.63
2018-12-21T07:12:29.471Z,100317.14
2018-12-21T07:14:58.452Z,100308.41
2018-12-21T07:17:28.111Z,100309.72
2018-12-21T07:19:57.988Z,100302.73
2018-12-21T07:22:27.055Z,100303.16
2018-12-21T07:24:56.126Z,100304.91
2018-12-21T07:27:25.398Z,100294.86
2018-12-21T07:29:54.391Z,100294.42
2018-12-21T07:32:23.391Z,100285.69
2018-12-21T07:34:52.371Z,100276.08
2018-12-21T07:37:21.373Z,100278.70
2018-12-21T07:39:50.377Z,100279.58
2018-12-21T07:42:19.427Z,100270.40
2018-12-21T07:44:48.418Z,100263.41
2018-12-21T07:47:17.532Z,100261.66
2018-12-21T07:49:46.528Z,100256.42
2018-12-21T07:52:15.550Z,100257.30
2018-12-21T07:54:44.584Z,100249.00
2018-12-21T07:57:13.613Z,100233.27
2018-12-21T07:59:42.609Z,100236.77
2018-12-21T08:02:11.813Z,100236.33
2018-12-21T08:04:40.800Z,100235.45
2018-12-21T08:07:09.850Z,100238.91
2018-12-21T08:09:38.969Z,100234.55
2018-12-21T08:12:08.091Z,100234.11
2018-12-21T08:14:37.091Z,100222.31
2018-12-21T08:17:06.185Z,100230.17
2018-12-21T08:19:35.257Z,100222.75
2018-12-21T08:22:04.237Z,100224.50
2018-12-21T08:24:33.260Z,100219.69
2018-12-21T08:27:02.363Z,100208.33
2018-12-21T08:29:31.522Z,100197.81
2018-12-21T08:32:00.535Z,100202.61
2018-12-21T08:34:29.581Z,100192.60
2018-12-21T08:36:58.784Z,100181.64
2018-12-21T08:39:27.873Z,100190.38
2018-12-21T08:41:56.950Z,100187.33
2018-12-21T08:44:25.967Z,100187.32
2018-12-21T08:46:55.053Z,100179.42
2018-12-21T08:49:24.209Z,100165.87
2018-12-21T08:51:53.286Z,100159.75
2018-12-21T08:54:22.376Z,100160.59
2018-12-21T08:56:51.458Z,100153.64
2018-12-21T08:59:21.009Z,100150.58
2018-12-21T09:01:50.086Z,100136.16
2018-12-21T09:04:19.197Z,100131.80
2018-12-21T09:06:48.268Z,100128.30
2018-12-21T09:09:17.372Z,100121.75
2018-12-21T09:11:48.046Z,100126.95
2018-12-21T09:14:17.206Z,100112.95
2018-12-21T09:16:46.213Z,100101.90
2018-12-21T09:19:15.282Z,100097.53
2018-12-21T09:21:44.341Z,100093.53
2018-12-21T09:24:13.410Z,100082.70
2018-12-21T09:26:42.488Z,100084.45
2018-12-21T09:29:11.554Z,100075.72
2018-12-21T09:31:40.631Z,100072.56
2018-12-21T09:34:09.654Z,100061.97
2018-12-21T09:36:38.691Z,100053.22
2018-12-21T09:39:08.265Z,100051.43
2018-12-21T09:41:39.113Z,100052.80
2018-12-21T09:44:08.153Z,100045.86
2018-12-21T09:46:37.411Z,100041.09
2018-12-21T09:49:06.434Z,100035.84
2018-12-21T09:51:36.500Z,100029.35
2018-12-21T09:54:09.835Z,100025.70
2018-12-21T09:56:37.500Z,100018.27
2018-12-21T09:59:08.029Z,100009.14
2018-12-21T10:01:37.276Z,100003.83
2018-12-21T10:04:07.517Z,99995.02
2018-12-21T10:06:37.138Z,99989.77
2018-12-21T10:09:07.760Z,99977.42
2018-12-21T10:11:36.765Z,99971.17
2018-12-21T10:14:05.841Z,99964.23
2018-12-21T10:16:34.854Z,99968.98
2018-12-21T10:19:04.088Z,99950.50
2018-12-21T10:21:33.137Z,99947.92
2018-12-21T10:24:02.204Z,99943.13
2018-12-21T10:26:31.314Z,99938.75
2018-12-21T10:29:00.294Z,99930.01
2018-12-21T10:31:29.379Z,99926.45
2018-12-21T10:33:58.390Z,99911.08
2018-12-21T10:36:27.470Z,99903.44
2018-12-21T10:38:56.549Z,99899.50
2018-12-21T10:41:25.643Z,99891.17
2018-12-21T10:43:55.615Z,99889.86
2018-12-21T10:46:24.670Z,99887.67
2018-12-21T10:48:53.736Z,99877.26
2018-12-21T10:51:22.808Z,99871.70
2018-12-21T10:56:32.074Z,99861.78
2018-12-21T10:59:01.175Z,99849.56
2018-12-21T11:01:30.419Z,99847.38
2018-12-21T11:03:59.447Z,99836.88
2018-12-21T11:06:28.921Z,99823.74
2018-12-21T11:08:57.955Z,99826.75
2018-12-21T11:11:27.010Z,99811.00
2018-12-21T11:13:56.081Z,99807.88
2018-12-21T11:16:25.078Z,99802.64
2018-12-21T11:18:54.094Z,99796.51
2018-12-21T11:21:23.104Z,99788.27
2018-12-21T11:23:52.070Z,99774.70
2018-12-21T11:26:21.199Z,99780.34
2018-12-21T11:28:50.330Z,99764.20
2018-12-21T11:31:19.515Z,99754.16
2018-12-21T11:33:48.716Z,99748.02
2018-12-21T11:36:19.847Z,99741.86
2018-12-21T11:38:49.137Z,99733.11
2018-12-21T11:41:18.697Z,99726.54
2018-12-21T11:43:47.830Z,99716.47
2018-12-21T11:46:17.025Z,99708.59
2018-12-21T11:48:46.097Z,99688.48
2018-12-21T11:51:15.235Z,99687.16
2018-12-21T11:53:44.247Z,99681.42
2018-12-21T11:56:13.342Z,99678.85
2018-12-21T11:58:42.479Z,99674.05
2018-12-21T12:01:11.472Z,99670.11
2018-12-21T12:03:40.602Z,99658.31
2018-12-21T12:06:09.913Z,99653.50
2018-12-21T12:08:39.150Z,99656.08
2018-12-21T12:11:08.274Z,99645.98
2018-12-21T12:13:37.256Z,99636.36
2018-12-21T12:16:06.254Z,99630.95
2018-12-21T12:18:35.542Z,99614.69
2018-12-21T12:21:04.708Z,99613.30
2018-12-21T12:23:33.708Z,99612.91
2018-12-21T12:26:02.800Z,99599.47
2018-12-21T12:28:31.967Z,99588.99
2018-12-21T12:31:01.035Z,99589.39
2018-12-21T12:33:30.794Z,99576.74
2018-12-21T12:35:59.849Z,99570.19
2018-12-21T12:38:29.522Z,99563.28
2018-12-21T12:41:06.387Z,99562.55
2018-12-21T12:43:30.194Z,99563.80
2018-12-21T12:45:59.266Z,99554.67
2018-12-21T12:48:28.336Z,99551.66
2018-12-21T12:50:57.405Z,99546.46
2018-12-21T12:53:26.414Z,99537.30
2018-12-21T12:55:55.474Z,99528.97
2018-12-21T12:58:24.453Z,99533.29
2018-12-21T13:00:53.616Z,99520.15
2018-12-21T13:03:22.682Z,99517.10
2018-12-21T13:05:51.726Z,99506.67
2018-12-21T13:08:21.733Z,99498.31
2018-12-21T13:10:51.706Z,99493.49
2018-12-21T13:13:20.718Z,99486.05
2018-12-21T13:15:49.707Z,99487.33
2018-12-21T13:18:22.239Z,99483.25
2018-12-21T13:20:51.299Z,99474.66
2018-12-21T13:23:20.561Z,99461.98
2018-12-21T13:25:49.907Z,99452.80
2018-12-21T13:28:18.933Z,99453.23
2018-12-21T13:30:47.998Z,99451.05
2018-12-21T13:33:17.021Z,99446.19
2018-12-21T13:35:46.079Z,99433.12
2018-12-21T13:38:15.130Z,99425.62
2018-12-21T13:40:44.107Z,99413.92
2018-12-21T13:43:13.175Z,99418.30
2018-12-21T13:45:42.768Z,99406.14
2018-12-21T13:48:11.865Z,99394.34
2018-12-21T13:50:41.233Z,99387.86
2018-12-21T13:53:10.419Z,99383.06
2018-12-21T13:55:39.505Z,99379.12
2018-12-21T13:58:09.062Z,99380.89
2018-12-21T14:00:38.370Z,99378.70
2018-12-21T14:03:07.483Z,99368.66
2018-12-21T14:05:36.672Z,99366.46
2018-12-21T14:08:05.944Z,99355.61
2018-12-21T14:10:35.190Z,99350.78
2018-12-21T16:05:54.505Z,115142.92
2018-12-21T16:13:20.867Z,115142.92
2018-12-21T18:38:41.178Z,115142.92
2018-12-21T18:43:58.694Z,115142.92
2018-12-21T18:46:29.169Z,115142.92
2018-12-21T18:50:26.596Z,115142.92
2018-12-21T18:56:20.863Z,115142.92
